createdAt,value
2022-12-12T00:01:32.190Z,97.60
2022-12-12T00:04:00.918Z,96.77
2022-12-12T00:06:29.186Z,96.88
2022-12-12T00:08:57.392Z,96.83
2022-12-12T00:11:26.624Z,97.21
2022-12-12T00:13:54.999Z,98.06
2022-12-12T00:16:23.469Z,98.16
2022-12-12T00:18:51.705Z,97.77
2022-12-12T00:21:25.065Z,98.67
2022-12-12T00:23:53.164Z,99.32
2022-12-12T00:26:23.976Z,99.47
2022-12-12T00:28:52.204Z,99.56
2022-12-12T00:31:20.096Z,100.00
2022-12-12T00:33:50.241Z,99.63
2022-12-12T00:36:19.876Z,100.00
2022-12-12T00:38:48.397Z,99.91
2022-12-12T00:41:16.481Z,100.00
2022-12-12T00:43:44.735Z,100.00
2022-12-12T00:46:17.530Z,100.00
2022-12-12T00:48:45.401Z,100.00
2022-12-12T00:51:22.578Z,100.00
2022-12-12T00:53:50.717Z,100.00
2022-12-12T00:56:20.752Z,100.00
2022-12-12T00:58:49.533Z,100.00
2022-12-12T01:01:19.849Z,100.00
2022-12-12T01:03:48.100Z,100.00
2022-12-12T01:06:16.271Z,100.00
2022-12-12T01:08:44.119Z,100.00
2022-12-12T01:11:14.530Z,100.00
2022-12-12T01:13:43.657Z,100.00
2022-12-12T01:16:12.723Z,100.00
2022-12-12T01:18:41.662Z,100.00
2022-12-12T01:21:11.559Z,100.00
2022-12-12T01:23:40.851Z,100.00
2022-12-12T01:26:11.649Z,100.00
2022-12-12T01:28:39.432Z,100.00
2022-12-12T01:31:07.743Z,100.00
2022-12-12T01:33:35.963Z,100.00
2022-12-12T01:36:04.527Z,100.00
2022-12-12T01:38:32.215Z,100.00
2022-12-12T01:41:00.186Z,100.00
2022-12-12T01:43:28.983Z,100.00
2022-12-12T01:46:03.166Z,100.00
2022-12-12T01:48:34.264Z,100.00
2022-12-12T01:51:06.788Z,99.29
2022-12-12T01:53:35.025Z,99.89
2022-12-12T01:56:07.713Z,100.00
2022-12-12T01:58:35.526Z,100.00
2022-12-12T02:01:03.366Z,100.00
2022-12-12T02:03:31.993Z,100.00
2022-12-12T02:06:03.913Z,100.00
2022-12-12T02:08:33.117Z,100.00
2022-12-12T02:11:01.129Z,100.00
2022-12-12T02:13:32.261Z,100.00
2022-12-12T02:16:39.937Z,100.00
2022-12-12T02:19:19.529Z,100.00
2022-12-12T02:22:02.397Z,100.00
2022-12-12T02:24:52.754Z,98.93
2022-12-12T02:27:40.753Z,98.16
2022-12-12T02:30:11.699Z,97.09
2022-12-12T02:32:58.203Z,97.36
2022-12-12T02:35:41.779Z,96.88
2022-12-12T02:38:18.337Z,96.74
2022-12-12T02:41:11.151Z,97.07
2022-12-12T02:43:47.747Z,97.56
2022-12-12T02:46:26.637Z,97.34
2022-12-12T02:49:11.656Z,97.01
2022-12-12T02:51:40.686Z,96.93
2022-12-12T02:54:15.613Z,96.99
2022-12-12T02:56:48.671Z,98.64
2022-12-12T02:59:37.971Z,97.27
2022-12-12T03:02:43.427Z,97.71
2022-12-12T03:05:42.321Z,97.74
2022-12-12T03:08:23.369Z,97.83
2022-12-12T03:11:06.340Z,98.92
2022-12-12T03:13:54.754Z,97.84
2022-12-12T03:16:28.267Z,98.26
2022-12-12T03:19:05.353Z,97.99
2022-12-12T03:21:38.780Z,98.15
2022-12-12T03:24:14.267Z,98.00
2022-12-12T03:27:02.043Z,98.52
2022-12-12T03:29:34.649Z,98.77
2022-12-12T03:32:08.331Z,98.53
2022-12-12T03:34:39.951Z,99.17
2022-12-12T03:37:13.516Z,99.10
2022-12-12T03:39:50.547Z,99.99
2022-12-12T03:42:23.855Z,100.00
2022-12-12T03:45:13.204Z,100.00
2022-12-12T03:48:09.653Z,100.00
2022-12-12T03:50:49.099Z,100.00
2022-12-12T03:53:29.368Z,99.47
2022-12-12T03:56:14.440Z,99.05
2022-12-12T03:58:59.540Z,99.71
2022-12-12T04:01:44.524Z,100.00
2022-12-12T04:04:16.696Z,100.00
2022-12-12T04:07:00.464Z,100.00
2022-12-12T04:09:48.541Z,100.00
2022-12-12T04:12:37.143Z,100.00
2022-12-12T04:15:36.679Z,100.00
2022-12-12T04:18:19.550Z,100.00
2022-12-12T04:21:36.033Z,100.00
2022-12-12T04:24:30.608Z,100.00
2022-12-12T04:27:00.983Z,100.00
2022-12-12T04:29:39.122Z,100.00
2022-12-12T04:32:28.585Z,100.00
2022-12-12T04:35:13.785Z,100.00
2022-12-12T04:37:47.879Z,100.00
2022-12-12T04:40:23.870Z,99.59
2022-12-12T04:42:57.359Z,99.29
2022-12-12T04:45:29.206Z,98.79
2022-12-12T04:47:58.565Z,98.70
2022-12-12T04:50:31.424Z,98.81
2022-12-12T04:53:02.141Z,100.00
2022-12-12T04:55:36.583Z,99.64
2022-12-12T04:58:06.796Z,99.83
2022-12-12T05:00:47.993Z,99.09
2022-12-12T05:03:25.895Z,99.16
2022-12-12T05:06:05.965Z,99.52
2022-12-12T05:08:38.941Z,99.43
2022-12-12T05:11:08.181Z,99.43
2022-12-12T05:13:39.600Z,99.55
2022-12-12T05:16:33.641Z,100.00
2022-12-12T05:19:01.923Z,99.24
2022-12-12T05:21:29.621Z,100.00
2022-12-12T05:23:57.373Z,100.00
2022-12-12T05:26:33.402Z,100.00
2022-12-12T05:29:06.980Z,100.00
2022-12-12T05:31:35.780Z,100.00
2022-12-12T05:34:04.754Z,100.00
2022-12-12T05:36:32.834Z,100.00
2022-12-12T05:39:00.597Z,100.00
2022-12-12T05:41:28.476Z,100.00
2022-12-12T05:43:56.270Z,100.00
2022-12-12T05:46:24.820Z,100.00
2022-12-12T05:48:52.638Z,100.00
2022-12-12T05:51:21.613Z,100.00
2022-12-12T05:53:49.490Z,100.00
2022-12-12T05:56:17.294Z,100.00
2022-12-12T05:58:45.098Z,100.00
2022-12-12T06:01:12.851Z,100.00
2022-12-12T06:03:40.718Z,100.00
2022-12-12T06:06:09.336Z,100.00
2022-12-12T06:08:40.494Z,100.00
2022-12-12T06:11:08.752Z,100.00
2022-12-12T06:13:37.917Z,100.00
2022-12-12T06:16:10.677Z,100.00
2022-12-12T06:18:38.845Z,100.00
2022-12-12T06:21:09.371Z,100.00
2022-12-12T06:23:38.907Z,100.00
2022-12-12T06:26:07.982Z,100.00
2022-12-12T06:28:36.872Z,100.00
2022-12-12T06:31:11.322Z,100.00
2022-12-12T06:33:40.843Z,100.00
2022-12-12T06:36:11.794Z,100.00
2022-12-12T06:38:40.548Z,100.00
2022-12-12T06:41:13.719Z,100.00
2022-12-12T06:43:42.718Z,100.00
2022-12-12T06:46:19.002Z,100.00
2022-12-12T06:48:47.393Z,100.00
2022-12-12T06:51:18.003Z,100.00
2022-12-12T06:53:46.101Z,100.00
2022-12-12T06:56:19.569Z,100.00
2022-12-12T06:58:48.043Z,100.00
2022-12-12T07:01:21.677Z,100.00
2022-12-12T07:03:51.034Z,100.00
2022-12-12T07:06:21.031Z,100.00
2022-12-12T07:08:49.349Z,100.00
2022-12-12T07:11:19.399Z,100.00
2022-12-12T07:13:47.455Z,99.68
2022-12-12T07:16:15.526Z,99.65
2022-12-12T07:18:43.321Z,98.78
2022-12-12T07:21:14.084Z,98.83
2022-12-12T07:23:41.989Z,98.48
2022-12-12T07:26:16.570Z,98.71
2022-12-12T07:28:44.769Z,98.18
2022-12-12T07:31:19.892Z,97.07
2022-12-12T07:33:48.043Z,96.83
2022-12-12T07:36:16.879Z,97.56
2022-12-12T07:38:45.130Z,97.71
2022-12-12T07:41:16.488Z,96.35
2022-12-12T07:43:49.439Z,94.94
2022-12-12T07:46:22.649Z,94.15
2022-12-12T07:48:51.206Z,94.60
2022-12-12T07:51:19.726Z,94.12
2022-12-12T07:53:47.905Z,94.39
2022-12-12T07:56:17.230Z,94.32
2022-12-12T07:58:45.524Z,94.60
2022-12-12T08:01:17.481Z,94.38
2022-12-12T08:03:47.033Z,93.83
2022-12-12T08:06:17.057Z,93.85
2022-12-12T08:08:47.912Z,93.96
2022-12-12T08:11:18.322Z,93.38
2022-12-12T08:13:47.135Z,92.70
2022-12-12T08:16:18.466Z,92.24
2022-12-12T08:18:46.752Z,92.70
2022-12-12T08:21:23.142Z,92.93
2022-12-12T08:23:57.444Z,92.02
2022-12-12T08:26:26.375Z,90.68
2022-12-12T08:28:54.544Z,90.79
2022-12-12T08:31:22.603Z,89.65
2022-12-12T08:33:50.952Z,90.18
2022-12-12T08:36:22.583Z,90.25
2022-12-12T08:38:50.775Z,89.86
2022-12-12T08:41:19.585Z,89.24
2022-12-12T08:43:47.934Z,88.41
2022-12-12T08:46:18.366Z,87.84
2022-12-12T08:48:48.088Z,88.68
2022-12-12T08:51:16.967Z,89.16
2022-12-12T08:53:46.010Z,87.94
2022-12-12T08:56:14.318Z,88.08
2022-12-12T08:58:42.231Z,87.96
2022-12-12T09:01:15.739Z,86.99
2022-12-12T09:03:43.954Z,86.89
2022-12-12T09:06:12.440Z,86.88
2022-12-12T09:08:40.775Z,85.94
2022-12-12T09:11:09.177Z,86.47
2022-12-12T09:13:37.982Z,86.50
2022-12-12T09:16:07.847Z,87.06
2022-12-12T09:18:36.871Z,87.37
2022-12-12T09:21:05.664Z,88.06
2022-12-12T09:23:33.910Z,87.35
2022-12-12T09:26:06.518Z,85.17
2022-12-12T09:28:34.639Z,85.11
2022-12-12T09:31:08.306Z,85.74
2022-12-12T09:33:36.605Z,85.32
2022-12-12T09:36:07.214Z,86.21
2022-12-12T09:38:36.003Z,84.90
2022-12-12T09:41:09.691Z,85.36
2022-12-12T09:43:44.278Z,86.69
2022-12-12T09:46:37.945Z,85.79
2022-12-12T09:49:22.032Z,85.48
2022-12-12T09:51:51.438Z,84.99
2022-12-12T09:54:22.897Z,83.19
2022-12-12T09:57:05.920Z,82.32
2022-12-12T09:59:39.747Z,81.49
2022-12-12T10:02:19.452Z,85.18
2022-12-12T10:05:02.903Z,85.90
2022-12-12T10:07:35.824Z,86.56
2022-12-12T10:10:23.740Z,87.31
2022-12-12T10:12:53.237Z,87.68
2022-12-12T10:15:30.123Z,87.58
2022-12-12T10:18:00.973Z,88.38
2022-12-12T10:20:32.438Z,89.08
2022-12-12T10:23:05.607Z,88.26
2022-12-12T10:25:54.596Z,88.96
2022-12-12T10:28:28.230Z,87.24
2022-12-12T10:30:59.180Z,85.22
2022-12-12T10:33:46.548Z,85.00
2022-12-12T10:36:41.604Z,83.68
2022-12-12T10:39:41.831Z,84.98
2022-12-12T10:42:09.514Z,86.30
2022-12-12T10:44:49.754Z,86.37
2022-12-12T10:47:17.967Z,86.55
2022-12-12T10:49:45.620Z,86.25
2022-12-12T10:52:21.489Z,86.60
2022-12-12T10:54:54.805Z,85.73
2022-12-12T10:57:28.263Z,84.83
2022-12-12T10:59:58.542Z,84.95
2022-12-12T11:02:39.331Z,83.59
2022-12-12T11:05:07.271Z,84.74
2022-12-12T11:07:42.676Z,85.79
2022-12-12T11:10:26.782Z,86.37
2022-12-12T11:13:13.719Z,85.72
2022-12-12T11:15:49.890Z,84.01
2022-12-12T11:18:21.596Z,85.09
2022-12-12T11:20:52.047Z,83.83
2022-12-12T11:23:25.639Z,84.44
2022-12-12T11:25:58.839Z,84.07
2022-12-12T11:28:31.613Z,84.39
2022-12-12T11:31:04.767Z,84.29
2022-12-12T11:33:39.028Z,84.07
2022-12-12T11:36:10.371Z,85.02
2022-12-12T11:38:41.235Z,84.66
2022-12-12T11:41:11.199Z,85.16
2022-12-12T11:43:55.977Z,84.35
2022-12-12T11:46:26.776Z,84.91
2022-12-12T11:48:54.567Z,85.44
2022-12-12T11:51:43.969Z,80.93
2022-12-12T11:54:22.965Z,82.68
2022-12-12T11:56:57.838Z,84.13
2022-12-12T12:00:03.114Z,82.78
2022-12-12T12:03:06.468Z,82.32
2022-12-12T12:06:13.643Z,82.18
2022-12-12T12:08:58.479Z,80.83
2022-12-12T12:11:28.879Z,81.42
2022-12-12T12:14:26.161Z,82.33
2022-12-12T12:17:12.459Z,84.19
2022-12-12T12:19:53.565Z,83.85
2022-12-12T12:22:48.579Z,81.97
2022-12-12T12:25:33.656Z,81.87
2022-12-12T12:28:06.055Z,83.32
2022-12-12T12:31:16.094Z,82.34
2022-12-12T12:34:02.721Z,82.84
2022-12-12T12:36:36.402Z,82.78
2022-12-12T12:39:10.580Z,83.42
2022-12-12T12:42:15.715Z,84.11
2022-12-12T12:45:13.418Z,86.16
2022-12-12T12:47:59.157Z,85.65
2022-12-12T12:50:34.964Z,89.30
2022-12-12T12:53:25.775Z,89.52
2022-12-12T12:55:57.867Z,89.33
2022-12-12T12:58:36.346Z,91.02
2022-12-12T13:01:09.218Z,91.42
2022-12-12T13:03:53.390Z,92.07
2022-12-12T13:06:32.427Z,93.42
2022-12-12T13:09:13.701Z,93.09
2022-12-12T13:11:45.834Z,94.29
2022-12-12T13:14:50.958Z,93.76
2022-12-12T13:17:21.970Z,92.82
2022-12-12T13:19:53.729Z,94.05
2022-12-12T13:22:53.531Z,94.17
2022-12-12T13:25:36.367Z,93.49
2022-12-12T13:28:13.052Z,93.36
2022-12-12T13:30:45.780Z,95.15
2022-12-12T13:33:28.627Z,95.74
2022-12-12T13:36:27.583Z,96.01
2022-12-12T13:39:02.915Z,95.83
2022-12-12T13:42:07.477Z,94.56
2022-12-12T13:44:39.918Z,96.63
2022-12-12T13:47:23.099Z,94.19
2022-12-12T13:49:54.654Z,93.34
2022-12-12T13:52:43.497Z,94.27
2022-12-12T13:55:13.226Z,93.04
2022-12-12T13:58:00.101Z,93.49
2022-12-12T14:00:35.570Z,92.75
2022-12-12T14:03:23.009Z,94.11
2022-12-12T14:05:53.701Z,95.03
2022-12-12T14:08:27.398Z,94.74
2022-12-12T14:11:00.391Z,94.14
2022-12-12T14:13:51.760Z,94.49
2022-12-12T14:16:24.967Z,94.78
2022-12-12T14:18:59.413Z,94.11
2022-12-12T14:21:56.958Z,95.35
2022-12-12T14:24:36.875Z,94.68
2022-12-12T14:27:07.459Z,95.63
2022-12-12T14:29:40.773Z,95.79
2022-12-12T14:32:12.153Z,95.30
2022-12-12T14:35:14.741Z,97.19
2022-12-12T14:38:05.529Z,98.45
2022-12-12T14:40:46.056Z,98.21
2022-12-12T14:43:25.263Z,99.00
2022-12-12T14:45:59.319Z,98.65
2022-12-12T14:48:30.888Z,98.64
2022-12-12T14:51:15.976Z,98.87
2022-12-12T14:53:57.188Z,98.29
2022-12-12T14:56:41.757Z,99.37
2022-12-12T14:59:25.427Z,99.65
2022-12-12T15:01:56.955Z,100.00
2022-12-12T15:04:30.158Z,100.00
2022-12-12T15:07:27.733Z,99.05
2022-12-12T15:09:56.118Z,99.27
2022-12-12T15:12:26.818Z,99.55
2022-12-12T15:14:58.149Z,98.55
2022-12-12T15:17:34.651Z,98.82
2022-12-12T15:20:13.279Z,100.00
2022-12-12T15:22:54.578Z,99.17
2022-12-12T15:25:25.293Z,100.00
2022-12-12T15:27:56.242Z,100.00
2022-12-12T15:30:37.090Z,100.00
2022-12-12T15:33:17.959Z,100.00
2022-12-12T15:36:01.835Z,100.00
2022-12-12T15:38:31.648Z,100.00
2022-12-12T15:41:03.340Z,100.00
2022-12-12T15:43:33.270Z,100.00
2022-12-12T15:46:14.426Z,100.00
2022-12-12T15:48:49.227Z,99.80
2022-12-12T15:51:24.722Z,100.00
2022-12-12T15:53:55.563Z,100.00
2022-12-12T15:56:28.004Z,100.00
2022-12-12T15:58:59.640Z,100.00
2022-12-12T16:01:30.986Z,100.00
2022-12-12T16:04:06.077Z,100.00
2022-12-12T16:06:45.495Z,100.00
2022-12-12T16:09:21.445Z,100.00
2022-12-12T16:11:56.901Z,100.00
2022-12-12T16:14:44.296Z,100.00
2022-12-12T16:17:19.605Z,100.00
2022-12-12T16:20:10.469Z,99.46
2022-12-12T16:22:48.822Z,100.00
2022-12-12T16:25:27.735Z,100.00
2022-12-12T16:28:12.988Z,100.00
2022-12-12T16:30:43.787Z,100.00
2022-12-12T16:33:27.185Z,100.00
2022-12-12T16:35:55.513Z,100.00
2022-12-12T16:38:25.347Z,100.00
2022-12-12T16:40:55.699Z,100.00
2022-12-12T16:43:24.399Z,100.00
2022-12-12T16:45:54.597Z,100.00
2022-12-12T16:48:40.865Z,100.00
2022-12-12T16:51:15.073Z,100.00
2022-12-12T16:53:43.145Z,100.00
2022-12-12T16:56:12.667Z,100.00
2022-12-12T16:58:40.684Z,100.00
2022-12-12T17:01:08.591Z,100.00
2022-12-12T17:03:36.526Z,100.00
2022-12-12T17:06:04.620Z,100.00
2022-12-12T17:08:32.586Z,100.00
2022-12-12T17:11:10.417Z,100.00
2022-12-12T17:13:48.103Z,100.00
2022-12-12T17:16:16.380Z,100.00
2022-12-12T17:18:44.275Z,100.00
2022-12-12T17:21:12.079Z,100.00
2022-12-12T17:23:40.503Z,100.00
2022-12-12T17:26:11.471Z,100.00
2022-12-12T17:28:39.362Z,100.00
2022-12-12T17:31:09.002Z,100.00
2022-12-12T17:33:45.807Z,100.00
2022-12-12T17:36:18.277Z,100.00
2022-12-12T17:38:48.786Z,100.00
2022-12-12T17:41:16.785Z,100.00
2022-12-12T17:43:44.616Z,100.00
2022-12-12T17:46:15.175Z,100.00
2022-12-12T17:48:47.425Z,100.00
2022-12-12T17:51:20.304Z,100.00
2022-12-12T17:53:48.271Z,100.00
2022-12-12T17:56:18.789Z,100.00
2022-12-12T17:58:48.461Z,99.71
2022-12-12T18:01:24.280Z,100.00
2022-12-12T18:03:59.300Z,100.00
2022-12-12T18:06:30.020Z,100.00
2022-12-12T18:08:58.958Z,100.00
2022-12-12T18:11:31.814Z,100.00
2022-12-12T18:14:05.614Z,100.00
2022-12-12T18:16:35.029Z,100.00
2022-12-12T18:19:03.037Z,100.00
2022-12-12T18:24:22.268Z,100.00
2022-12-12T18:26:54.333Z,100.00
2022-12-12T18:29:22.567Z,100.00
2022-12-12T18:31:50.682Z,100.00
2022-12-12T18:34:18.888Z,100.00
2022-12-12T18:36:46.794Z,100.00
2022-12-12T18:39:15.185Z,100.00
2022-12-12T18:41:43.417Z,100.00
2022-12-12T18:44:14.367Z,100.00
2022-12-12T18:46:43.822Z,100.00
2022-12-12T18:49:18.076Z,100.00
2022-12-12T18:51:46.746Z,100.00
2022-12-12T18:54:16.228Z,100.00
2022-12-12T18:56:46.290Z,99.89
2022-12-12T18:59:15.017Z,100.00
2022-12-12T19:01:45.762Z,100.00
2022-12-12T19:04:20.852Z,100.00
2022-12-12T19:06:51.380Z,100.00
2022-12-12T19:09:23.183Z,100.00
2022-12-12T19:11:55.506Z,100.00
2022-12-12T19:14:40.428Z,100.00
2022-12-12T19:17:20.726Z,100.00
2022-12-12T19:19:54.048Z,99.78
2022-12-12T19:22:44.310Z,100.00
2022-12-12T19:25:10.339Z,100.00
2022-12-12T19:27:41.425Z,99.62
2022-12-12T19:30:12.671Z,100.00
2022-12-12T19:32:41.237Z,99.65
2022-12-12T19:35:10.512Z,99.63
2022-12-12T19:37:38.627Z,99.93
2022-12-12T19:40:07.210Z,100.00
2022-12-12T19:42:38.067Z,100.00
2022-12-12T19:45:07.509Z,100.00
2022-12-12T19:47:35.949Z,100.00
2022-12-12T19:50:04.508Z,100.00
2022-12-12T19:52:32.623Z,100.00
2022-12-12T19:55:00.602Z,100.00
2022-12-12T19:57:28.612Z,100.00
2022-12-12T19:59:56.573Z,100.00
2022-12-12T20:02:24.664Z,100.00
2022-12-12T20:04:52.588Z,100.00
2022-12-12T20:07:20.845Z,100.00
2022-12-12T20:09:48.827Z,99.86
2022-12-12T20:12:16.673Z,99.84
2022-12-12T20:14:44.742Z,98.59
2022-12-12T20:17:13.479Z,100.00
2022-12-12T20:19:43.283Z,100.00
2022-12-12T20:22:11.225Z,100.00
2022-12-12T20:24:40.992Z,100.00
2022-12-12T20:27:11.533Z,100.00
2022-12-12T20:29:39.849Z,100.00
2022-12-12T20:32:08.409Z,100.00
2022-12-12T20:34:36.602Z,100.00
2022-12-12T20:37:05.723Z,100.00
2022-12-12T20:39:35.767Z,100.00
2022-12-12T20:42:05.027Z,100.00
2022-12-12T20:44:33.090Z,100.00
2022-12-12T20:47:01.097Z,100.00
2022-12-12T20:49:30.399Z,100.00
2022-12-12T20:51:59.374Z,100.00
2022-12-12T20:54:29.148Z,100.00
2022-12-12T20:56:59.022Z,100.00
2022-12-12T20:59:27.537Z,100.00
2022-12-12T21:01:56.457Z,100.00
2022-12-12T21:04:24.912Z,100.00
2022-12-12T21:06:53.162Z,100.00
2022-12-12T21:09:25.966Z,100.00
2022-12-12T21:11:56.826Z,100.00
2022-12-12T21:14:26.797Z,100.00
2022-12-12T21:16:54.837Z,100.00
2022-12-12T21:19:23.858Z,100.00
2022-12-12T21:21:52.575Z,100.00
2022-12-12T21:24:20.768Z,100.00
2022-12-12T21:26:49.073Z,100.00
2022-12-12T21:29:17.526Z,100.00
2022-12-12T21:31:50.859Z,100.00
2022-12-12T21:34:22.117Z,100.00
2022-12-12T21:36:53.077Z,100.00
2022-12-12T21:39:26.912Z,100.00
2022-12-12T21:41:55.419Z,100.00
2022-12-12T21:44:23.965Z,100.00
2022-12-12T21:46:52.313Z,100.00
2022-12-12T21:49:26.939Z,100.00
2022-12-12T21:52:06.686Z,100.00
2022-12-12T21:54:34.978Z,100.00
2022-12-12T21:57:03.273Z,100.00
2022-12-12T21:59:31.605Z,100.00
2022-12-12T22:02:01.206Z,100.00
2022-12-12T22:04:29.545Z,100.00
2022-12-12T22:06:58.001Z,100.00
2022-12-12T22:09:26.713Z,100.00
2022-12-12T22:12:03.370Z,100.00
2022-12-12T22:14:34.156Z,100.00
2022-12-12T22:17:03.780Z,100.00
2022-12-12T22:19:31.809Z,100.00
2022-12-12T22:21:59.842Z,100.00
2022-12-12T22:24:28.092Z,100.00
2022-12-12T22:26:56.627Z,100.00
2022-12-12T22:29:24.610Z,100.00
2022-12-12T22:31:52.802Z,100.00
2022-12-12T22:34:23.737Z,100.00
2022-12-12T22:36:52.655Z,100.00
2022-12-12T22:39:23.677Z,100.00
2022-12-12T22:41:52.369Z,100.00
2022-12-12T22:44:22.666Z,100.00
2022-12-12T22:46:53.106Z,100.00
2022-12-12T22:49:25.950Z,100.00
2022-12-12T22:51:58.555Z,100.00
2022-12-12T22:54:27.087Z,100.00
2022-12-12T22:56:55.197Z,100.00
2022-12-12T22:59:25.198Z,100.00
2022-12-12T23:01:53.086Z,100.00
2022-12-12T23:04:21.119Z,100.00
2022-12-12T23:06:49.118Z,100.00
2022-12-12T23:09:20.269Z,100.00
2022-12-12T23:11:50.115Z,99.65
2022-12-12T23:14:21.822Z,99.58
2022-12-12T23:16:51.075Z,99.95
2022-12-12T23:19:24.497Z,99.45
2022-12-12T23:21:52.876Z,99.40
2022-12-12T23:24:20.802Z,99.31
2022-12-12T23:26:51.242Z,99.46
2022-12-12T23:29:20.627Z,98.70
2022-12-12T23:31:49.440Z,98.32
2022-12-12T23:34:22.885Z,98.82
2022-12-12T23:36:53.045Z,98.70
2022-12-12T23:39:22.027Z,99.65
2022-12-12T23:41:49.989Z,100.00
2022-12-12T23:44:20.062Z,99.54
2022-12-12T23:46:48.635Z,99.36
2022-12-12T23:49:22.499Z,98.78
2022-12-12T23:51:56.039Z,97.84
2022-12-12T23:54:27.390Z,97.48
2022-12-12T23:56:56.172Z,97.58
2022-12-12T23:59:26.201Z,97.09
